createdAt,value
2019-03-30T00:01:37.910Z,125.33
2019-03-30T00:04:06.630Z,129.60
2019-03-30T00:06:34.930Z,124.67
2019-03-30T00:09:06.697Z,130.80
2019-03-30T00:11:34.975Z,136.00
2019-03-30T00:14:02.923Z,131.53
2019-03-30T00:16:31.103Z,134.40
2019-03-30T00:18:59.046Z,137.17
2019-03-30T00:21:27.008Z,141.93
2019-03-30T00:23:54.888Z,139.77
2019-03-30T00:26:23.157Z,132.17
2019-03-30T00:28:50.958Z,135.13
2019-03-30T00:31:18.946Z,136.50
2019-03-30T00:33:47.192Z,126.53
2019-03-30T00:36:15.234Z,138.77
2019-03-30T00:38:43.224Z,148.00
2019-03-30T00:41:11.071Z,153.23
2019-03-30T00:43:39.499Z,149.97
2019-03-30T00:46:07.856Z,153.70
2019-03-30T00:48:35.920Z,163.57
2019-03-30T00:51:04.505Z,161.47
2019-03-30T00:53:32.685Z,165.07
2019-03-30T00:56:00.883Z,169.47
2019-03-30T00:58:28.840Z,174.90
2019-03-30T01:00:58.058Z,179.03
2019-03-30T01:03:25.872Z,217.07
2019-03-30T01:05:54.011Z,201.83
2019-03-30T01:08:21.921Z,189.77
2019-03-30T01:10:49.835Z,179.03
2019-03-30T01:13:18.066Z,188.20
2019-03-30T01:15:45.930Z,181.87
2019-03-30T01:18:16.800Z,180.27
2019-03-30T01:20:44.676Z,175.47
2019-03-30T01:23:12.480Z,174.10
2019-03-30T01:25:40.359Z,171.73
2019-03-30T01:28:08.260Z,165.93
2019-03-30T01:30:36.652Z,172.20
2019-03-30T01:33:04.649Z,164.43
2019-03-30T01:35:32.679Z,159.87
2019-03-30T01:38:00.582Z,162.30
2019-03-30T01:40:28.452Z,160.33
2019-03-30T01:42:56.348Z,160.80
2019-03-30T01:45:24.419Z,166.33
2019-03-30T01:47:52.611Z,160.27
2019-03-30T01:50:20.400Z,176.33
2019-03-30T01:52:48.321Z,184.07
2019-03-30T01:55:16.564Z,182.50
2019-03-30T01:57:44.632Z,179.20
2019-03-30T02:00:14.324Z,189.00
2019-03-30T02:02:42.417Z,190.53
2019-03-30T02:05:10.214Z,199.03
2019-03-30T02:07:38.110Z,182.43
2019-03-30T02:10:06.362Z,182.87
2019-03-30T02:12:34.576Z,185.93
2019-03-30T02:15:02.704Z,181.40
2019-03-30T02:17:31.046Z,193.43
2019-03-30T02:19:59.052Z,194.87
2019-03-30T02:22:27.340Z,190.97
2019-03-30T02:24:55.159Z,193.03
2019-03-30T02:27:23.013Z,187.47
2019-03-30T02:29:50.914Z,183.27
2019-03-30T02:32:18.704Z,190.13
2019-03-30T02:34:46.585Z,184.70
2019-03-30T02:37:14.665Z,186.33
2019-03-30T02:39:42.891Z,192.20
2019-03-30T02:42:10.791Z,184.63
2019-03-30T02:44:38.805Z,176.17
2019-03-30T02:47:06.703Z,183.27
2019-03-30T02:49:34.575Z,176.10
2019-03-30T02:52:03.749Z,163.83
2019-03-30T02:54:31.601Z,162.23
2019-03-30T02:56:59.617Z,156.77
2019-03-30T02:59:27.472Z,153.03
2019-03-30T03:01:55.375Z,156.13
2019-03-30T03:04:23.250Z,152.77
2019-03-30T03:06:51.153Z,167.10
2019-03-30T03:09:19.008Z,163.57
2019-03-30T03:11:46.928Z,156.77
2019-03-30T03:14:14.790Z,157.77
2019-03-30T03:16:42.766Z,147.70
2019-03-30T03:19:10.742Z,154.03
2019-03-30T03:21:39.050Z,156.40
2019-03-30T03:24:07.337Z,158.67
2019-03-30T03:26:35.610Z,158.40
2019-03-30T03:29:03.511Z,163.37
2019-03-30T03:31:31.671Z,173.77
2019-03-30T03:33:59.548Z,174.47
2019-03-30T03:36:27.609Z,185.57
2019-03-30T03:38:55.509Z,176.93
2019-03-30T03:41:23.687Z,181.87
2019-03-30T03:43:51.669Z,177.67
2019-03-30T03:46:19.513Z,171.87
2019-03-30T03:48:47.581Z,162.90
2019-03-30T03:51:25.859Z,162.97
2019-03-30T03:53:47.327Z,166.83
2019-03-30T03:56:15.463Z,160.87
2019-03-30T03:58:45.102Z,161.27
2019-03-30T04:01:14.611Z,161.37
2019-03-30T04:03:42.541Z,159.83
2019-03-30T04:06:10.886Z,155.33
2019-03-30T04:08:40.596Z,148.77
2019-03-30T04:11:09.380Z,155.80
2019-03-30T04:13:37.726Z,148.73
2019-03-30T04:16:05.726Z,152.23
2019-03-30T04:18:33.938Z,153.93
2019-03-30T04:21:01.945Z,154.30
2019-03-30T04:23:30.355Z,154.70
2019-03-30T04:25:58.725Z,151.73
2019-03-30T04:28:26.834Z,154.40
2019-03-30T04:30:54.737Z,157.90
2019-03-30T04:33:22.475Z,156.03
2019-03-30T04:35:50.502Z,162.53
2019-03-30T04:38:18.780Z,158.83
2019-03-30T04:40:46.789Z,161.43
2019-03-30T04:43:14.653Z,152.57
2019-03-30T04:45:42.517Z,154.33
2019-03-30T04:48:10.387Z,149.57
2019-03-30T04:50:38.276Z,151.23
2019-03-30T04:53:06.321Z,159.40
2019-03-30T04:55:34.207Z,153.60
2019-03-30T04:58:02.068Z,144.47
2019-03-30T05:00:30.309Z,143.37
2019-03-30T05:05:47.872Z,142.43
2019-03-30T05:08:29.282Z,151.50
2019-03-30T05:10:57.076Z,142.23
2019-03-30T05:13:24.954Z,138.17
2019-03-30T05:15:53.063Z,136.23
2019-03-30T05:18:21.426Z,136.67
2019-03-30T05:20:49.432Z,143.60
2019-03-30T05:23:17.852Z,139.77
2019-03-30T05:25:46.330Z,147.83
2019-03-30T05:28:15.820Z,139.23
2019-03-30T05:30:43.838Z,143.67
2019-03-30T05:33:11.984Z,149.53
2019-03-30T05:35:40.149Z,142.30
2019-03-30T05:38:07.919Z,145.17
2019-03-30T05:40:36.188Z,145.17
2019-03-30T05:43:04.085Z,149.27
2019-03-30T05:45:32.329Z,149.97
2019-03-30T05:48:00.286Z,143.17
2019-03-30T05:50:28.783Z,151.73
2019-03-30T05:52:56.550Z,149.07
2019-03-30T05:55:24.756Z,141.23
2019-03-30T05:57:52.522Z,146.47
2019-03-30T06:00:22.800Z,146.37
2019-03-30T06:02:50.598Z,147.27
2019-03-30T06:05:18.446Z,149.97
2019-03-30T06:07:46.243Z,162.30
2019-03-30T06:10:14.438Z,159.17
2019-03-30T06:12:42.569Z,153.50
2019-03-30T06:15:10.539Z,157.27
2019-03-30T06:17:38.476Z,156.33
2019-03-30T06:20:06.657Z,162.67
2019-03-30T06:22:40.525Z,163.07
2019-03-30T06:25:04.511Z,161.27
2019-03-30T06:27:32.834Z,156.13
2019-03-30T06:30:32.163Z,154.33
2019-03-30T06:33:00.114Z,147.37
2019-03-30T06:35:27.903Z,151.63
2019-03-30T06:37:56.228Z,148.83
2019-03-30T06:40:24.014Z,150.57
2019-03-30T06:42:52.462Z,149.23
2019-03-30T06:45:20.702Z,157.50
2019-03-30T06:47:49.006Z,157.57
2019-03-30T06:50:17.025Z,151.37
2019-03-30T06:52:56.783Z,151.63
2019-03-30T06:55:14.560Z,150.20
2019-03-30T06:58:03.634Z,142.53
2019-03-30T07:00:32.614Z,143.23
2019-03-30T07:03:03.277Z,140.40
2019-03-30T07:05:32.826Z,144.03
2019-03-30T07:08:01.448Z,141.53
2019-03-30T07:10:29.588Z,140.63
2019-03-30T07:12:58.663Z,134.77
2019-03-30T07:15:28.411Z,131.70
2019-03-30T07:17:58.153Z,132.47
2019-03-30T07:20:26.732Z,116.73
2019-03-30T07:22:55.502Z,108.13
2019-03-30T07:25:23.467Z,110.47
2019-03-30T07:27:52.859Z,92.23
2019-03-30T07:30:21.196Z,78.93
2019-03-30T07:32:48.313Z,83.67
2019-03-30T07:35:16.642Z,73.03
2019-03-30T07:37:44.991Z,65.77
2019-03-30T07:40:12.919Z,65.13
2019-03-30T07:42:41.993Z,63.13
2019-03-30T07:45:10.649Z,61.63
2019-03-30T07:50:39.387Z,46.27
2019-03-30T07:53:07.328Z,45.27
2019-03-30T07:55:35.701Z,41.87
2019-03-30T07:58:03.780Z,39.23
2019-03-30T08:00:31.862Z,36.90
2019-03-30T08:02:59.751Z,35.67
2019-03-30T08:05:28.865Z,33.23
2019-03-30T08:07:56.753Z,32.90
2019-03-30T08:10:24.950Z,31.63
2019-03-30T08:12:52.957Z,31.47
2019-03-30T08:15:21.813Z,33.20
2019-03-30T08:17:49.956Z,32.33
2019-03-30T08:20:18.319Z,32.55
2019-03-30T08:22:46.228Z,31.05
2019-03-30T08:25:15.093Z,30.97
2019-03-30T08:27:43.780Z,31.12
2019-03-30T08:30:12.421Z,32.40
2019-03-30T08:32:40.573Z,31.30
2019-03-30T08:35:08.764Z,31.43
2019-03-30T08:37:36.946Z,32.38
2019-03-30T08:40:05.019Z,31.70
2019-03-30T08:42:33.396Z,31.97
2019-03-30T08:45:01.630Z,32.38
2019-03-30T08:47:29.499Z,32.70
2019-03-30T08:49:57.602Z,32.83
2019-03-30T08:52:25.781Z,33.58
2019-03-30T08:54:53.497Z,31.87
2019-03-30T08:57:21.806Z,31.52
2019-03-30T08:59:49.641Z,32.33
2019-03-30T09:02:17.450Z,31.83
2019-03-30T09:04:45.677Z,32.35
2019-03-30T09:07:13.440Z,31.68
2019-03-30T09:09:41.448Z,32.13
2019-03-30T09:12:09.402Z,31.17
2019-03-30T09:14:37.718Z,36.35
2019-03-30T09:17:05.870Z,37.78
2019-03-30T09:19:35.923Z,32.58
2019-03-30T09:22:04.142Z,31.07
2019-03-30T09:24:31.963Z,32.00
2019-03-30T09:27:00.503Z,30.23
2019-03-30T09:29:28.339Z,31.97
2019-03-30T09:31:56.467Z,30.77
2019-03-30T09:34:24.420Z,28.83
2019-03-30T09:36:52.752Z,28.87
2019-03-30T09:39:20.766Z,30.35
2019-03-30T09:41:48.738Z,29.35
2019-03-30T09:44:17.004Z,31.68
2019-03-30T09:46:44.875Z,30.55
2019-03-30T09:49:12.966Z,29.25
2019-03-30T09:51:40.839Z,28.80
2019-03-30T09:54:22.852Z,28.83
2019-03-30T09:56:38.805Z,30.08
2019-03-30T09:59:06.822Z,31.52
2019-03-30T10:04:19.018Z,31.60
2019-03-30T10:06:46.846Z,31.45
2019-03-30T10:09:15.106Z,30.88
2019-03-30T10:11:43.378Z,31.75
2019-03-30T10:14:11.241Z,32.33
2019-03-30T10:16:39.371Z,30.48
2019-03-30T10:19:07.233Z,29.15
2019-03-30T10:21:35.091Z,31.75
2019-03-30T10:24:02.951Z,30.90
2019-03-30T10:26:31.103Z,31.80
2019-03-30T10:28:58.999Z,30.43
2019-03-30T10:31:27.035Z,29.92
2019-03-30T10:33:54.955Z,29.32
2019-03-30T10:36:22.913Z,30.35
2019-03-30T10:38:50.760Z,30.10
2019-03-30T10:41:19.229Z,31.33
2019-03-30T10:43:47.163Z,30.27
2019-03-30T10:46:15.298Z,29.25
2019-03-30T10:48:56.661Z,29.18
2019-03-30T10:51:26.136Z,30.75
2019-03-30T10:53:54.153Z,30.05
2019-03-30T10:56:22.263Z,27.90
2019-03-30T10:58:50.082Z,30.97
2019-03-30T11:01:17.938Z,31.27
2019-03-30T11:03:45.766Z,27.35
2019-03-30T11:06:13.638Z,26.60
2019-03-30T11:08:41.455Z,26.77
2019-03-30T11:11:09.253Z,28.38
2019-03-30T11:13:37.274Z,26.10
2019-03-30T11:16:05.428Z,24.20
2019-03-30T11:18:33.708Z,20.92
2019-03-30T11:21:01.597Z,21.52
2019-03-30T11:23:29.744Z,21.75
2019-03-30T11:25:57.594Z,20.95
2019-03-30T11:28:25.859Z,19.15
2019-03-30T11:30:54.067Z,19.23
2019-03-30T11:33:21.888Z,20.12
2019-03-30T11:35:50.307Z,18.90
2019-03-30T11:38:18.161Z,19.17
2019-03-30T11:40:46.463Z,18.45
2019-03-30T11:43:14.665Z,19.23
2019-03-30T11:45:42.512Z,20.40
2019-03-30T11:48:10.361Z,18.82
2019-03-30T11:50:39.026Z,17.85
2019-03-30T11:53:07.259Z,16.67
2019-03-30T11:55:34.994Z,17.05
2019-03-30T11:58:03.173Z,19.00
2019-03-30T12:00:31.109Z,20.30
2019-03-30T12:02:59.297Z,17.73
2019-03-30T12:05:27.465Z,17.30
2019-03-30T12:07:55.220Z,18.80
2019-03-30T12:10:23.052Z,18.02
2019-03-30T12:12:51.081Z,15.13
2019-03-30T12:15:19.065Z,16.73
2019-03-30T12:17:46.899Z,17.23
2019-03-30T12:20:14.960Z,16.10
2019-03-30T12:22:43.191Z,17.37
2019-03-30T12:25:11.663Z,15.35
2019-03-30T12:27:39.458Z,17.23
2019-03-30T12:30:07.400Z,17.27
2019-03-30T12:32:35.333Z,17.45
2019-03-30T12:35:03.387Z,16.82
2019-03-30T12:37:31.573Z,18.15
2019-03-30T12:39:59.338Z,18.92
2019-03-30T12:42:27.212Z,17.57
2019-03-30T12:44:55.265Z,18.12
2019-03-30T12:47:23.115Z,17.20
2019-03-30T12:49:50.944Z,18.48
2019-03-30T12:52:19.083Z,17.35
2019-03-30T12:54:47.036Z,16.87
2019-03-30T12:57:14.819Z,16.55
2019-03-30T12:59:42.692Z,17.37
2019-03-30T13:02:10.967Z,16.95
2019-03-30T13:04:38.810Z,16.73
2019-03-30T13:07:06.863Z,16.87
2019-03-30T13:09:35.181Z,18.17
2019-03-30T13:12:03.332Z,17.82
2019-03-30T13:14:31.622Z,17.15
2019-03-30T13:17:00.005Z,14.20
2019-03-30T13:19:33.280Z,14.95
2019-03-30T13:22:01.063Z,15.98
2019-03-30T13:24:29.342Z,15.88
2019-03-30T13:26:58.537Z,14.40
2019-03-30T13:29:26.903Z,14.50
2019-03-30T13:31:54.782Z,15.05
2019-03-30T13:34:24.211Z,13.68
2019-03-30T13:36:52.958Z,13.53
2019-03-30T13:39:20.735Z,13.40
2019-03-30T13:41:48.599Z,14.23
2019-03-30T13:44:16.530Z,12.93
2019-03-30T13:46:44.601Z,12.65
2019-03-30T13:49:12.815Z,11.90
2019-03-30T13:51:40.700Z,12.85
2019-03-30T13:54:08.503Z,12.15
2019-03-30T13:56:36.761Z,13.30
2019-03-30T13:59:04.789Z,14.85
2019-03-30T14:01:33.425Z,14.10
2019-03-30T14:04:01.243Z,15.70
2019-03-30T14:06:29.570Z,14.55
2019-03-30T14:09:15.199Z,14.23
2019-03-30T14:11:43.694Z,15.30
2019-03-30T14:14:11.519Z,15.43
2019-03-30T14:16:39.408Z,15.13
2019-03-30T14:19:07.608Z,16.23
2019-03-30T14:21:35.486Z,17.82
2019-03-30T14:24:03.561Z,17.10
2019-03-30T14:26:32.007Z,18.12
2019-03-30T14:28:59.968Z,17.25
2019-03-30T14:31:27.863Z,18.30
2019-03-30T14:33:55.716Z,19.92
2019-03-30T14:36:23.588Z,17.82
2019-03-30T14:38:51.792Z,20.12
2019-03-30T14:41:19.642Z,20.45
2019-03-30T14:43:47.483Z,20.40
2019-03-30T14:46:15.318Z,19.70
2019-03-30T14:48:44.376Z,21.40
2019-03-30T14:51:12.365Z,19.60
2019-03-30T14:53:40.794Z,21.12
2019-03-30T14:56:08.842Z,22.42
2019-03-30T14:58:36.735Z,20.72
2019-03-30T15:01:04.508Z,23.10
2019-03-30T15:03:32.354Z,22.20
2019-03-30T15:06:00.378Z,23.18
2019-03-30T15:08:28.289Z,22.55
2019-03-30T15:10:56.366Z,22.82
2019-03-30T15:13:24.233Z,20.75
2019-03-30T15:15:52.422Z,20.27
2019-03-30T15:18:20.259Z,19.37
2019-03-30T15:20:48.606Z,19.02
2019-03-30T15:23:16.656Z,18.92
2019-03-30T15:25:44.491Z,19.98
2019-03-30T15:28:12.349Z,22.02
2019-03-30T15:30:40.690Z,21.30
2019-03-30T15:33:08.683Z,15.98
2019-03-30T15:35:36.730Z,15.98
2019-03-30T15:38:04.658Z,17.27
2019-03-30T15:40:32.514Z,24.02
2019-03-30T15:43:01.096Z,24.72
2019-03-30T15:45:28.983Z,25.45
2019-03-30T15:47:57.352Z,25.08
2019-03-30T15:50:25.285Z,25.37
2019-03-30T15:52:54.110Z,24.05
2019-03-30T15:55:22.636Z,23.67
2019-03-30T15:57:50.744Z,24.40
2019-03-30T16:00:18.995Z,24.52
2019-03-30T16:02:47.487Z,25.12
2019-03-30T16:05:16.077Z,24.85
2019-03-30T16:07:45.566Z,24.47
2019-03-30T16:10:14.367Z,26.17
2019-03-30T16:12:43.333Z,24.12
2019-03-30T16:15:13.410Z,24.95
2019-03-30T16:17:41.638Z,24.85
2019-03-30T16:20:10.264Z,24.32
2019-03-30T16:22:38.127Z,26.05
2019-03-30T16:25:07.306Z,24.37
2019-03-30T16:27:39.042Z,25.00
2019-03-30T16:30:06.543Z,25.17
2019-03-30T16:32:35.800Z,26.37
2019-03-30T16:35:04.268Z,26.23
2019-03-30T16:37:32.558Z,24.85
2019-03-30T16:40:00.766Z,24.43
2019-03-30T16:42:31.520Z,24.77
2019-03-30T16:44:59.665Z,24.72
2019-03-30T16:47:27.807Z,22.70
2019-03-30T16:49:57.108Z,22.87
2019-03-30T16:52:26.951Z,23.38
2019-03-30T16:54:55.126Z,23.52
2019-03-30T16:57:23.511Z,23.42
2019-03-30T16:59:51.771Z,23.57
2019-03-30T17:02:20.134Z,22.62
2019-03-30T17:04:48.724Z,22.65
2019-03-30T17:07:17.012Z,22.48
2019-03-30T17:09:45.618Z,22.73
2019-03-30T17:12:13.794Z,22.80
2019-03-30T17:14:41.969Z,20.97
2019-03-30T17:17:10.550Z,23.15
2019-03-30T17:19:39.216Z,23.22
2019-03-30T17:22:07.386Z,24.00
2019-03-30T17:24:35.557Z,24.43
2019-03-30T17:27:03.920Z,23.35
2019-03-30T17:29:32.079Z,23.02
2019-03-30T17:32:00.237Z,22.93
2019-03-30T17:34:28.871Z,23.18
2019-03-30T17:36:57.019Z,23.52
2019-03-30T17:39:25.270Z,23.40
2019-03-30T17:41:53.554Z,23.35
2019-03-30T17:44:21.639Z,21.37
2019-03-30T17:46:50.126Z,25.10
2019-03-30T17:49:18.293Z,25.40
2019-03-30T17:51:47.479Z,24.20
2019-03-30T17:54:15.914Z,23.00
2019-03-30T17:56:44.513Z,24.82
2019-03-30T17:59:12.643Z,25.05
2019-03-30T18:01:41.120Z,28.02
2019-03-30T18:04:09.289Z,26.55
2019-03-30T18:06:37.764Z,26.95
2019-03-30T18:09:06.004Z,27.65
2019-03-30T18:11:34.199Z,27.35
2019-03-30T18:14:02.374Z,27.85
2019-03-30T18:16:30.634Z,28.60
2019-03-30T18:18:59.137Z,29.07
2019-03-30T18:21:27.387Z,28.17
2019-03-30T18:23:55.548Z,28.02
2019-03-30T18:26:23.781Z,30.60
2019-03-30T18:28:52.389Z,28.40
2019-03-30T18:31:20.901Z,57.70
2019-03-30T18:33:49.626Z,44.13
2019-03-30T18:36:18.580Z,30.77
2019-03-30T18:38:48.609Z,29.20
2019-03-30T18:41:17.133Z,29.83
2019-03-30T18:43:45.778Z,29.73
2019-03-30T18:46:13.919Z,31.50
2019-03-30T18:48:41.994Z,32.55
2019-03-30T18:51:10.434Z,32.07
2019-03-30T18:53:38.881Z,32.65
2019-03-30T18:56:07.433Z,30.43
2019-03-30T18:58:41.866Z,31.93
2019-03-30T19:01:06.413Z,32.53
2019-03-30T19:03:35.023Z,32.83
2019-03-30T19:06:03.639Z,30.60
2019-03-30T19:08:34.587Z,32.97
2019-03-30T19:11:02.022Z,30.93
2019-03-30T19:13:31.024Z,33.08
2019-03-30T19:15:59.283Z,31.40
2019-03-30T19:18:27.933Z,30.70
2019-03-30T19:20:56.129Z,31.40
2019-03-30T19:23:24.543Z,31.10
2019-03-30T19:25:52.703Z,30.13
2019-03-30T19:28:21.601Z,32.53
2019-03-30T19:30:49.844Z,32.45
2019-03-30T19:33:18.010Z,32.17
2019-03-30T19:35:46.299Z,32.93
2019-03-30T19:38:15.415Z,35.47
2019-03-30T19:41:01.501Z,34.93
2019-03-30T19:43:38.123Z,35.63
2019-03-30T19:54:51.745Z,35.07
2019-03-30T20:00:14.724Z,35.63
2019-03-30T20:05:36.911Z,34.57
2019-03-30T20:08:11.894Z,38.13
2019-03-30T20:10:36.757Z,36.70
2019-03-30T20:13:04.845Z,37.07
2019-03-30T20:15:33.857Z,39.87
2019-03-30T20:18:02.195Z,38.73
2019-03-30T20:20:30.750Z,39.53
2019-03-30T20:22:59.301Z,39.37
2019-03-30T20:25:27.897Z,41.10
2019-03-30T20:27:56.438Z,43.67
2019-03-30T20:30:24.717Z,42.43
2019-03-30T20:32:53.347Z,42.10
2019-03-30T20:35:21.762Z,40.83
2019-03-30T20:37:50.023Z,41.63
2019-03-30T20:40:18.271Z,40.77
2019-03-30T20:42:46.661Z,45.33
2019-03-30T20:45:16.004Z,44.40
2019-03-30T20:47:44.307Z,44.27
2019-03-30T20:50:13.321Z,40.50
2019-03-30T20:52:41.828Z,43.47
2019-03-30T20:55:10.165Z,45.10
2019-03-30T20:57:38.425Z,43.70
2019-03-30T21:00:07.662Z,43.47
2019-03-30T21:02:36.176Z,43.17
2019-03-30T21:05:06.563Z,41.67
2019-03-30T21:07:35.507Z,43.30
2019-03-30T21:10:04.830Z,44.33
2019-03-30T21:12:33.094Z,42.70
2019-03-30T21:15:01.464Z,44.50
2019-03-30T21:17:29.690Z,43.60
2019-03-30T21:19:58.049Z,38.13
2019-03-30T21:22:26.394Z,37.43
2019-03-30T21:24:54.644Z,36.38
2019-03-30T21:27:23.122Z,36.90
2019-03-30T21:29:54.793Z,35.92
2019-03-30T21:35:13.474Z,40.43
2019-03-30T21:37:41.644Z,42.13
2019-03-30T21:40:10.266Z,42.73
2019-03-30T21:42:38.812Z,42.90
2019-03-30T21:45:07.873Z,41.50
2019-03-30T21:47:36.097Z,42.27
2019-03-30T21:50:06.159Z,39.60
2019-03-30T21:52:34.314Z,38.47
2019-03-30T21:55:02.519Z,38.10
2019-03-30T21:57:30.683Z,39.30
2019-03-30T22:00:09.804Z,40.73
2019-03-30T22:02:29.316Z,41.40
2019-03-30T22:04:57.474Z,41.85
2019-03-30T22:07:26.740Z,43.90
2019-03-30T22:09:57.780Z,44.05
2019-03-30T22:12:26.023Z,44.83
2019-03-30T22:14:54.223Z,44.83
2019-03-30T22:17:22.759Z,43.75
2019-03-30T22:19:51.053Z,45.05
2019-03-30T22:22:19.313Z,45.50
2019-03-30T22:24:47.818Z,47.33
2019-03-30T22:27:16.238Z,47.07
2019-03-30T22:29:44.433Z,48.07
2019-03-30T22:32:13.179Z,49.13
2019-03-30T22:34:41.343Z,49.85
2019-03-30T22:37:09.533Z,48.23
2019-03-30T22:39:42.268Z,48.23
2019-03-30T22:42:10.858Z,48.87
2019-03-30T22:44:39.181Z,48.35
2019-03-30T22:47:07.368Z,49.43
2019-03-30T22:49:35.559Z,51.00
2019-03-30T22:52:03.725Z,51.23
2019-03-30T22:54:32.275Z,52.13
2019-03-30T22:57:01.359Z,51.33
2019-03-30T22:59:29.847Z,50.85
2019-03-30T23:01:58.264Z,49.17
2019-03-30T23:04:26.844Z,50.00
2019-03-30T23:06:55.472Z,49.30
2019-03-30T23:09:24.804Z,48.53
2019-03-30T23:11:53.615Z,46.27
2019-03-30T23:14:21.796Z,45.83
2019-03-30T23:16:50.203Z,45.05
2019-03-30T23:19:18.374Z,45.80
2019-03-30T23:21:47.090Z,44.73
2019-03-30T23:24:15.817Z,43.27
2019-03-30T23:26:43.990Z,40.58
2019-03-30T23:29:12.235Z,42.05
2019-03-30T23:31:40.760Z,39.37
2019-03-30T23:34:09.404Z,38.23
2019-03-30T23:36:37.604Z,39.18
2019-03-30T23:39:07.340Z,38.13
2019-03-30T23:41:35.758Z,36.33
2019-03-30T23:44:04.928Z,35.20
2019-03-30T23:46:33.102Z,37.17
2019-03-30T23:49:01.386Z,37.10
2019-03-30T23:51:30.014Z,35.58
2019-03-30T23:53:58.414Z,37.60
2019-03-30T23:56:26.612Z,36.97
2019-03-30T23:58:55.197Z,35.67
